Strona główna
METAR-TAF:

METAR-TAF

Lotnisko :

Platforma wiertnicza

Sleipner, Norwegia

Szerokość geograficzna: 58-22-00N, Długość geograficzna: 001-54-25E, wysokość: 50 m

Aktualna obserwacja pogody

Raport powstał 24 minut temu, godzina 01:50 UTC
Wiatr 30 kt od zachodnio-północny zachód
Temperatura 7°C
Wilgotność 87%
Ciśnienie 1018 hPa
Widzialność 10 km lub więcej

METAR: ENSL 010150Z AUTO 29030KT 9999NDV SCT012/// BKN069/// 07/05 Q1018 W04/S4

czas: 04:14 (02:14 UTC)


TAF: brakujący

Obserwacja i prognoza pogody dla ponad 4000 lotnisk (raport METAR i TAF).

Dostępne stacje oznaczono żółtymi i czerwonymi punktami na mapie.

Najedź kursorem aby zobaczyć nazwę stacji.

Kliknij aby zobaczyć obserwacje i prognozy pogody.

Aby zmienić mapę: kliknij na zielony przycisk z czarnym krzyżykiem, aby powiększyć; na zielony przycisk z myślnikiem, aby pomniejszyć; na zielone strzałki, aby przejść do map sąsiednich.


METAR-TAF: